createdAt,value
2018-07-12T00:01:15.406Z,60376.55
2018-07-12T00:03:42.642Z,60402.97
2018-07-12T00:06:09.755Z,60399.92
2018-07-12T00:08:36.858Z,60434.47
2018-07-12T00:11:03.963Z,60421.26
2018-07-12T00:13:31.063Z,60396.87
2018-07-12T00:15:58.162Z,60411.10
2018-07-12T00:18:25.262Z,60403.98
2018-07-12T00:20:52.378Z,60392.80
2018-07-12T00:23:19.486Z,60400.93
2018-07-12T00:25:46.579Z,60403.98
2018-07-12T00:28:13.687Z,60407.03
2018-07-12T00:30:40.787Z,60412.11
2018-07-12T00:33:08.450Z,60395.86
2018-07-12T00:35:35.575Z,60403.98
2018-07-12T00:38:02.688Z,60407.03
2018-07-12T00:40:29.787Z,60403.98
2018-07-12T00:42:56.966Z,60401.95
2018-07-12T00:45:24.063Z,60395.86
2018-07-12T00:47:51.225Z,60401.95
2018-07-12T00:50:18.330Z,60391.79
2018-07-12T00:52:45.439Z,60388.74
2018-07-12T00:55:12.551Z,60385.69
2018-07-12T00:57:39.654Z,60386.71
2018-07-12T01:00:06.756Z,60377.56
2018-07-12T01:02:33.851Z,60398.90
2018-07-12T01:05:00.959Z,60417.20
2018-07-12T01:07:28.061Z,60412.11
2018-07-12T01:09:55.190Z,60413.13
2018-07-12T01:12:22.299Z,60399.92
2018-07-12T01:14:49.400Z,60381.63
2018-07-12T01:17:16.502Z,60415.16
2018-07-12T01:19:43.602Z,60399.92
2018-07-12T01:22:10.708Z,60379.59
2018-07-12T01:24:37.810Z,60370.45
2018-07-12T01:27:04.924Z,60407.03
2018-07-12T01:29:32.023Z,60398.90
2018-07-12T01:31:59.140Z,60389.76
2018-07-12T01:34:26.242Z,60401.95
2018-07-12T01:36:53.363Z,60390.77
2018-07-12T01:39:20.466Z,60392.80
2018-07-12T01:41:47.567Z,60426.34
2018-07-12T01:44:14.677Z,60401.95
2018-07-12T01:46:41.778Z,60388.74
2018-07-12T01:49:08.879Z,60413.13
2018-07-12T01:51:35.985Z,60408.05
2018-07-12T01:54:03.086Z,60400.93
2018-07-12T01:59:03.747Z,60414.14
2018-07-12T02:01:30.847Z,60384.68
2018-07-12T02:03:57.960Z,60399.92
2018-07-12T02:06:25.063Z,60384.68
2018-07-12T02:08:52.163Z,60382.64
2018-07-12T02:11:19.262Z,60423.29
2018-07-12T02:13:46.367Z,60390.77
2018-07-12T02:16:13.484Z,60409.07
2018-07-12T02:18:40.587Z,60387.72
2018-07-12T02:21:07.705Z,60410.08
2018-07-12T02:23:34.807Z,60389.76
2018-07-12T02:26:01.910Z,60400.93
2018-07-12T02:28:29.014Z,60401.95
2018-07-12T02:30:56.138Z,60391.79
2018-07-12T02:33:23.243Z,60413.13
2018-07-12T02:35:50.351Z,60410.08
2018-07-12T02:38:17.465Z,60402.97
2018-07-12T02:40:44.570Z,60424.31
2018-07-12T02:43:11.678Z,60401.95
2018-07-12T02:45:38.771Z,60400.93
2018-07-12T02:48:05.879Z,60418.21
2018-07-12T02:50:32.980Z,60379.59
2018-07-12T02:53:00.087Z,60421.26
2018-07-12T02:55:27.183Z,60403.98
2018-07-12T02:57:54.290Z,60412.11
2018-07-12T03:00:21.580Z,60398.90
2018-07-12T03:02:48.667Z,60391.79
2018-07-12T03:05:15.781Z,60371.46
2018-07-12T03:07:42.891Z,60406.02
2018-07-12T03:10:09.995Z,60415.16
2018-07-12T03:12:37.098Z,60409.07
2018-07-12T03:15:04.206Z,60417.20
2018-07-12T03:17:31.310Z,60417.20
2018-07-12T03:19:58.436Z,60433.45
2018-07-12T03:22:25.530Z,60427.36
2018-07-12T03:24:52.638Z,60445.65
2018-07-12T03:27:19.793Z,60415.16
2018-07-12T03:29:46.846Z,60422.27
2018-07-12T03:32:13.991Z,60437.52
2018-07-12T03:34:41.062Z,60422.27
2018-07-12T03:37:08.174Z,60433.45
2018-07-12T03:39:35.311Z,60431.42
2018-07-12T03:42:02.427Z,60417.20
2018-07-12T03:44:29.533Z,60397.89
2018-07-12T03:46:56.655Z,60442.60
2018-07-12T03:49:23.763Z,60416.18
2018-07-12T03:51:50.859Z,60429.39
2018-07-12T03:54:18.147Z,60436.50
2018-07-12T03:56:45.254Z,60398.90
2018-07-12T03:59:12.363Z,60447.68
2018-07-12T04:01:39.462Z,60393.82
2018-07-12T04:04:06.579Z,60433.45
2018-07-12T04:06:33.684Z,60440.57
2018-07-12T04:09:00.803Z,60409.07
2018-07-12T04:11:27.903Z,60400.93
2018-07-12T04:13:55.002Z,60416.18
2018-07-12T04:16:22.111Z,60414.14
2018-07-12T04:18:49.306Z,60409.07
2018-07-12T04:21:16.432Z,60407.03
2018-07-12T04:23:43.572Z,60435.48
2018-07-12T04:26:10.672Z,60402.97
2018-07-12T04:28:37.774Z,60394.84
2018-07-12T04:31:04.883Z,60406.02
2018-07-12T04:33:31.998Z,60426.34
2018-07-12T04:35:59.104Z,60420.24
2018-07-12T04:38:26.209Z,60414.14
2018-07-12T04:40:53.323Z,60414.14
2018-07-12T04:43:20.430Z,60418.21
2018-07-12T04:45:47.535Z,60409.07
2018-07-12T04:48:14.841Z,60416.18
2018-07-12T04:50:41.955Z,60401.95
2018-07-12T04:53:09.075Z,60402.97
2018-07-12T04:55:36.187Z,60406.02
2018-07-12T04:58:03.327Z,60393.82
2018-07-12T05:00:30.431Z,60399.92
2018-07-12T05:02:57.543Z,60408.05
2018-07-12T05:05:24.654Z,60410.08
2018-07-12T05:07:51.763Z,60401.95
2018-07-12T05:10:18.879Z,60402.97
2018-07-12T05:12:45.979Z,60394.84
2018-07-12T05:15:13.087Z,60411.10
2018-07-12T05:17:40.198Z,60424.31
2018-07-12T05:20:07.334Z,60393.82
2018-07-12T05:22:34.447Z,60401.95
2018-07-12T05:25:01.535Z,60417.20
2018-07-12T05:27:28.646Z,60388.74
2018-07-12T05:29:55.745Z,60382.64
2018-07-12T05:32:22.858Z,60385.69
2018-07-12T05:34:49.959Z,60410.08
2018-07-12T05:37:18.131Z,60416.18
2018-07-12T05:39:46.299Z,60395.86
2018-07-12T05:42:14.484Z,60397.89
2018-07-12T05:44:42.654Z,60391.79
2018-07-12T05:47:10.855Z,60383.66
2018-07-12T05:49:39.027Z,60393.82
2018-07-12T05:52:07.204Z,60386.71
2018-07-12T05:54:35.382Z,60374.52
2018-07-12T05:57:03.567Z,60397.89
2018-07-12T05:59:31.743Z,60402.97
2018-07-12T06:02:11.158Z,60403.98
2018-07-12T06:04:39.339Z,60386.71
2018-07-12T06:07:07.510Z,60402.97
2018-07-12T06:09:35.695Z,60427.36
2018-07-12T06:12:03.870Z,60395.86
2018-07-12T06:14:32.046Z,60400.93
2018-07-12T06:17:00.233Z,60402.97
2018-07-12T06:19:28.393Z,60385.69
2018-07-12T06:21:56.573Z,60409.07
2018-07-12T06:24:24.762Z,60388.74
2018-07-12T06:26:52.962Z,60414.14
2018-07-12T06:29:21.141Z,60425.32
2018-07-12T06:31:49.314Z,60412.11
2018-07-12T06:34:17.486Z,60416.18
2018-07-12T06:36:45.666Z,60398.90
2018-07-12T06:39:13.834Z,60400.93
2018-07-12T06:41:42.016Z,60386.71
2018-07-12T06:44:10.198Z,60412.11
2018-07-12T06:46:38.382Z,60412.11
2018-07-12T06:49:06.562Z,60368.42
2018-07-12T06:51:34.944Z,60394.84
2018-07-12T06:54:03.123Z,60379.59
2018-07-12T06:56:31.343Z,60369.43
2018-07-12T06:58:59.510Z,60372.48
2018-07-12T07:01:27.744Z,60401.95
2018-07-12T07:03:56.015Z,60400.93
2018-07-12T07:06:24.182Z,60400.93
2018-07-12T07:08:52.375Z,60397.89
2018-07-12T07:11:20.562Z,60386.71
2018-07-12T07:13:49.142Z,60369.43
2018-07-12T07:16:17.319Z,60383.66
2018-07-12T07:18:45.515Z,60375.53
2018-07-12T07:21:13.695Z,60364.35
2018-07-12T07:23:42.027Z,60382.64
2018-07-12T07:26:10.235Z,60386.71
2018-07-12T07:28:38.351Z,60372.48
2018-07-12T07:31:06.567Z,60379.59
2018-07-12T07:33:34.722Z,60384.68
2018-07-12T07:36:02.895Z,60363.34
2018-07-12T07:38:31.066Z,60354.19
2018-07-12T07:40:59.242Z,60359.27
2018-07-12T07:43:27.404Z,60369.43
2018-07-12T07:45:55.576Z,60362.32
2018-07-12T07:48:23.730Z,60371.46
2018-07-12T07:50:51.915Z,60355.21
2018-07-12T07:53:20.083Z,60368.42
2018-07-12T07:55:48.434Z,60363.34
2018-07-12T07:58:16.630Z,60370.45
2018-07-12T08:00:44.802Z,60363.34
2018-07-12T08:03:13.125Z,60359.27
2018-07-12T08:05:41.328Z,60361.30
2018-07-12T08:08:09.490Z,60357.24
2018-07-12T08:10:37.658Z,60333.87
2018-07-12T08:13:05.822Z,60350.12
2018-07-12T08:15:33.996Z,60360.29
2018-07-12T08:18:02.167Z,60358.25
2018-07-12T08:20:30.327Z,60348.09
2018-07-12T08:22:58.495Z,60352.16
2018-07-12T08:25:26.683Z,60335.90
2018-07-12T08:28:06.178Z,60343.01
2018-07-12T08:30:34.335Z,60340.98
2018-07-12T08:33:02.509Z,60346.06
2018-07-12T08:35:30.667Z,60354.19
2018-07-12T08:37:58.840Z,60360.29
2018-07-12T08:40:27.047Z,60351.14
2018-07-12T08:42:55.171Z,60371.46
2018-07-12T08:45:23.339Z,60351.14
2018-07-12T08:47:51.506Z,60343.01
2018-07-12T08:50:19.695Z,60379.59
2018-07-12T08:52:47.869Z,60372.48
2018-07-12T08:55:16.062Z,60338.95
2018-07-12T08:57:44.423Z,60344.03
2018-07-12T09:00:12.617Z,60330.82
2018-07-12T09:02:41.107Z,60320.66
2018-07-12T09:05:09.262Z,60336.91
2018-07-12T09:07:37.434Z,60311.51
2018-07-12T09:10:05.606Z,60321.67
2018-07-12T09:12:33.803Z,60329.80
2018-07-12T09:15:01.979Z,60305.41
2018-07-12T09:17:30.160Z,60321.67
2018-07-12T09:19:58.338Z,60314.56
2018-07-12T09:22:26.511Z,60330.82
2018-07-12T09:24:54.670Z,60324.72
2018-07-12T09:27:22.838Z,60320.66
2018-07-12T09:29:51.006Z,60303.38
2018-07-12T09:32:19.190Z,60292.21
2018-07-12T09:34:47.425Z,60315.57
2018-07-12T09:37:15.535Z,60316.59
2018-07-12T09:39:43.736Z,60308.46
2018-07-12T09:42:11.858Z,60287.12
2018-07-12T09:44:40.049Z,60292.21
2018-07-12T09:47:08.235Z,60285.09
2018-07-12T09:49:36.407Z,60307.45
2018-07-12T09:52:08.750Z,60271.88
2018-07-12T09:54:36.987Z,60301.35
2018-07-12T09:57:16.362Z,60281.03
2018-07-12T09:59:44.542Z,60293.22
2018-07-12T10:02:18.086Z,60290.17
2018-07-12T10:04:46.271Z,60282.04
2018-07-12T10:07:19.649Z,60262.74
2018-07-12T10:09:53.231Z,60264.77
2018-07-12T10:12:26.842Z,60261.72
2018-07-12T10:15:10.210Z,60265.79
2018-07-12T10:17:43.514Z,60281.03
2018-07-12T10:20:11.702Z,60275.95
2018-07-12T10:22:39.879Z,60261.72
2018-07-12T10:25:08.418Z,60277.98
2018-07-12T10:27:36.551Z,60258.67
2018-07-12T10:30:05.186Z,60260.71
2018-07-12T10:32:33.346Z,60247.49
2018-07-12T10:35:01.544Z,60267.82
2018-07-12T10:37:29.727Z,60245.46
2018-07-12T10:39:57.894Z,60251.56
2018-07-12T10:42:26.060Z,60245.46
2018-07-12T10:44:54.236Z,60264.77
2018-07-12T10:47:22.550Z,60287.12
2018-07-12T10:49:50.732Z,60248.51
2018-07-12T10:52:18.915Z,60248.51
2018-07-12T10:54:47.083Z,60236.32
2018-07-12T10:57:15.262Z,60229.20
2018-07-12T10:59:43.445Z,60222.09
2018-07-12T11:02:11.623Z,60234.29
2018-07-12T11:04:39.835Z,60244.45
2018-07-12T11:07:08.007Z,60225.14
2018-07-12T11:09:36.192Z,60233.27
2018-07-12T11:12:04.359Z,60214.98
2018-07-12T11:14:32.543Z,60195.67
2018-07-12T11:17:00.710Z,60209.90
2018-07-12T11:19:28.898Z,60249.53
2018-07-12T11:21:57.059Z,60274.93
2018-07-12T11:24:25.238Z,60244.45
2018-07-12T11:26:53.423Z,60203.80
2018-07-12T11:29:31.495Z,60235.30
2018-07-12T11:31:59.702Z,60246.48
2018-07-12T11:34:27.889Z,60232.25
2018-07-12T11:36:56.108Z,60213.96
2018-07-12T11:39:24.237Z,60213.96
2018-07-12T11:41:52.445Z,60194.66
2018-07-12T11:44:20.775Z,60185.51
2018-07-12T11:46:49.007Z,60172.30
2018-07-12T11:49:17.163Z,60184.49
2018-07-12T11:51:45.519Z,60175.35
2018-07-12T11:54:13.711Z,60193.64
2018-07-12T11:56:42.118Z,60197.70
2018-07-12T11:59:10.274Z,60201.77
2018-07-12T12:01:38.509Z,60194.66
2018-07-12T12:04:06.954Z,60232.25
2018-07-12T12:06:35.118Z,60211.93
2018-07-12T12:09:04.603Z,60194.66
2018-07-12T12:11:32.767Z,60211.93
2018-07-12T12:14:00.943Z,60217.01
2018-07-12T12:16:29.123Z,60211.93
2018-07-12T12:18:57.306Z,60180.43
2018-07-12T12:21:25.731Z,60205.83
2018-07-12T12:23:53.911Z,60194.66
2018-07-12T12:26:22.645Z,60171.29
2018-07-12T12:28:51.200Z,60181.45
2018-07-12T12:31:19.386Z,60202.79
2018-07-12T12:33:47.566Z,60172.30
2018-07-12T12:36:15.763Z,60179.41
2018-07-12T12:38:43.930Z,60191.61
2018-07-12T12:41:12.111Z,60212.95
2018-07-12T12:43:40.295Z,60218.03
2018-07-12T12:46:08.515Z,60222.09
2018-07-12T12:48:36.695Z,60254.61
2018-07-12T12:51:04.953Z,60251.56
2018-07-12T12:53:33.166Z,60233.27
2018-07-12T12:56:01.683Z,60230.22
2018-07-12T12:58:29.893Z,60236.32
2018-07-12T13:00:58.101Z,60212.95
2018-07-12T13:03:27.615Z,60192.62
2018-07-12T13:05:55.894Z,60188.56
2018-07-12T13:08:24.056Z,60198.72
2018-07-12T13:10:52.309Z,60183.48
2018-07-12T13:13:20.478Z,60182.46
2018-07-12T13:15:49.084Z,60181.45
2018-07-12T13:18:17.530Z,60157.06
2018-07-12T13:20:45.872Z,60177.38
2018-07-12T13:23:14.137Z,60174.33
2018-07-12T13:25:42.795Z,60186.52
2018-07-12T13:28:10.958Z,60182.46
2018-07-12T13:30:39.263Z,60169.25
2018-07-12T13:33:07.507Z,60163.16
2018-07-12T13:35:35.976Z,60154.01
2018-07-12T13:38:04.406Z,60178.40
2018-07-12T13:40:32.742Z,60167.22
2018-07-12T13:43:01.334Z,60158.07
2018-07-12T13:45:29.994Z,60182.46
2018-07-12T13:47:58.810Z,60205.83
2018-07-12T13:50:28.047Z,60205.83
2018-07-12T13:52:56.346Z,60230.22
2018-07-12T13:55:24.814Z,60221.07
2018-07-12T13:57:53.439Z,60228.19
2018-07-12T14:00:22.170Z,60226.16
2018-07-12T14:02:50.382Z,60202.79
2018-07-12T14:05:19.869Z,60219.04
2018-07-12T14:07:48.821Z,60222.09
2018-07-12T14:10:17.146Z,60234.29
2018-07-12T14:12:45.610Z,60256.64
2018-07-12T14:15:13.775Z,60240.38
2018-07-12T14:17:41.968Z,60230.22
2018-07-12T14:20:10.131Z,60212.95
2018-07-12T14:22:38.316Z,60220.06
2018-07-12T14:25:06.506Z,60210.91
2018-07-12T14:27:34.715Z,60197.70
2018-07-12T14:30:02.891Z,60213.96
2018-07-12T14:32:31.076Z,60210.91
2018-07-12T14:34:59.275Z,60202.79
2018-07-12T14:37:27.442Z,60219.04
2018-07-12T14:39:55.619Z,60215.99
2018-07-12T14:42:23.791Z,60202.79
2018-07-12T14:44:51.971Z,60204.82
2018-07-12T14:47:20.171Z,60199.74
2018-07-12T14:49:48.347Z,60199.74
2018-07-12T14:52:16.513Z,60178.40
2018-07-12T14:54:44.682Z,60208.88
2018-07-12T14:57:12.869Z,60207.86
2018-07-12T14:59:41.059Z,60203.80
2018-07-12T15:02:09.274Z,60208.88
2018-07-12T15:04:37.451Z,60212.95
2018-07-12T15:07:05.670Z,60204.82
2018-07-12T15:09:33.919Z,60214.98
2018-07-12T15:12:02.119Z,60221.07
2018-07-12T15:14:30.286Z,60209.90
2018-07-12T15:16:58.586Z,60226.16
2018-07-12T15:19:26.851Z,60227.17
2018-07-12T15:21:54.979Z,60222.09
2018-07-12T15:24:23.183Z,60204.82
2018-07-12T15:26:51.448Z,60194.66
2018-07-12T15:29:19.711Z,60210.91
2018-07-12T15:31:47.817Z,60209.90
2018-07-12T15:34:16.091Z,60206.85
2018-07-12T15:36:44.252Z,60192.62
2018-07-12T15:39:12.430Z,60226.16
2018-07-12T15:41:40.592Z,60227.17
2018-07-12T15:44:08.973Z,60253.59
2018-07-12T15:46:37.002Z,60241.40
2018-07-12T15:49:05.374Z,60238.35
2018-07-12T15:51:33.591Z,60235.30
2018-07-12T15:54:01.834Z,60221.07
2018-07-12T15:56:30.015Z,60226.16
2018-07-12T15:58:58.333Z,60225.14
2018-07-12T16:01:26.511Z,60227.17
2018-07-12T16:03:54.805Z,60239.36
2018-07-12T16:06:22.995Z,60212.95
2018-07-12T16:08:51.166Z,60215.99
2018-07-12T16:11:19.989Z,60221.07
2018-07-12T16:13:48.211Z,60229.20
2018-07-12T16:16:16.645Z,60209.90
2018-07-12T16:18:44.851Z,60212.95
2018-07-12T16:21:13.305Z,60224.12
2018-07-12T16:23:41.616Z,60202.79
2018-07-12T16:26:09.822Z,60221.07
2018-07-12T16:28:38.031Z,60227.17
2018-07-12T16:31:06.457Z,60221.07
2018-07-12T16:33:34.684Z,60231.24
2018-07-12T16:36:02.957Z,60222.09
2018-07-12T16:38:31.414Z,60210.91
2018-07-12T16:40:59.662Z,60213.96
2018-07-12T16:43:27.906Z,60227.17
2018-07-12T16:45:56.063Z,60215.99
2018-07-12T16:48:24.238Z,60220.06
2018-07-12T16:50:52.410Z,60218.03
2018-07-12T16:53:20.582Z,60208.88
2018-07-12T16:55:48.807Z,60214.98
2018-07-12T16:58:17.072Z,60228.19
2018-07-12T17:00:45.259Z,60239.36
2018-07-12T17:03:13.544Z,60233.27
2018-07-12T17:05:42.153Z,60226.16
2018-07-12T17:08:10.318Z,60238.35
2018-07-12T17:10:38.510Z,60221.07
2018-07-12T17:13:06.697Z,60221.07
2018-07-12T17:15:34.863Z,60218.03
2018-07-12T17:18:03.027Z,60217.01
2018-07-12T17:20:31.196Z,60229.20
2018-07-12T17:22:59.367Z,60225.14
2018-07-12T17:25:27.541Z,60210.91
2018-07-12T17:27:55.699Z,60228.19
2018-07-12T17:30:25.388Z,60214.98
2018-07-12T17:32:53.554Z,60252.57
2018-07-12T17:35:21.726Z,60233.27
2018-07-12T17:37:49.887Z,60227.17
2018-07-12T17:40:18.074Z,60235.30
2018-07-12T17:42:46.251Z,60230.22
2018-07-12T17:45:14.448Z,60229.20
2018-07-12T17:47:42.651Z,60238.35
2018-07-12T17:50:10.804Z,60249.53
2018-07-12T17:52:39.002Z,60244.45
2018-07-12T17:55:07.163Z,60233.27
2018-07-12T17:57:35.342Z,60242.41
2018-07-12T18:00:03.547Z,60240.38
2018-07-12T18:02:31.744Z,60240.38
2018-07-12T18:04:59.985Z,60215.99
2018-07-12T18:07:28.135Z,60241.40
2018-07-12T18:09:56.827Z,60237.33
2018-07-12T18:12:25.004Z,60246.48
2018-07-12T18:14:53.175Z,60249.53
2018-07-12T18:17:21.402Z,60243.43
2018-07-12T18:19:49.584Z,60226.16
2018-07-12T18:22:17.888Z,60232.25
2018-07-12T18:24:46.023Z,60230.22
2018-07-12T18:27:14.238Z,60238.35
2018-07-12T18:29:42.496Z,60252.57
2018-07-12T18:32:10.819Z,60265.79
2018-07-12T18:34:39.076Z,60261.72
2018-07-12T18:37:07.287Z,60256.64
2018-07-12T18:39:35.467Z,60269.85
2018-07-12T18:42:03.772Z,60274.93
2018-07-12T18:44:31.953Z,60249.53
2018-07-12T18:47:00.137Z,60237.33
2018-07-12T18:49:28.306Z,60258.67
2018-07-12T18:51:56.710Z,60241.40
2018-07-12T18:54:25.322Z,60250.54
2018-07-12T18:56:56.240Z,60254.61
2018-07-12T18:59:26.186Z,60275.95
2018-07-12T19:01:54.455Z,60283.06
2018-07-12T19:04:23.194Z,60278.99
2018-07-12T19:06:51.653Z,60282.04
2018-07-12T19:09:20.671Z,60278.99
2018-07-12T19:11:49.429Z,60284.07
2018-07-12T19:14:18.009Z,60285.09
2018-07-12T19:16:46.672Z,60273.91
2018-07-12T19:19:14.843Z,60292.21
2018-07-12T19:21:43.030Z,60249.53
2018-07-12T19:24:11.279Z,60282.04
2018-07-12T19:26:39.487Z,60290.17
2018-07-12T19:29:07.831Z,60284.07
2018-07-12T19:31:36.187Z,60281.03
2018-07-12T19:34:04.483Z,60282.04
2018-07-12T19:36:32.652Z,60276.96
2018-07-12T19:39:00.822Z,60292.21
2018-07-12T19:41:29.012Z,60293.22
2018-07-12T19:43:57.195Z,60291.19
2018-07-12T19:46:25.459Z,60294.24
2018-07-12T19:48:53.739Z,60297.29
2018-07-12T19:51:21.899Z,60276.96
2018-07-12T19:53:50.081Z,60304.40
2018-07-12T19:56:18.247Z,60282.04
2018-07-12T19:58:46.426Z,60308.46
2018-07-12T20:01:14.605Z,60305.41
2018-07-12T20:03:42.857Z,60309.48
2018-07-12T20:06:10.991Z,60311.51
2018-07-12T20:08:39.170Z,60300.34
2018-07-12T20:11:07.350Z,60299.32
2018-07-12T20:13:35.542Z,60308.46
2018-07-12T20:16:03.746Z,60306.43
2018-07-12T20:18:31.911Z,60301.35
2018-07-12T20:21:00.092Z,60298.30
2018-07-12T20:23:28.252Z,60323.71
2018-07-12T20:25:56.636Z,60310.50
2018-07-12T20:28:24.787Z,60290.17
2018-07-12T20:30:52.982Z,60317.61
2018-07-12T20:33:21.155Z,60307.45
2018-07-12T20:35:49.331Z,60300.34
2018-07-12T20:38:17.527Z,60312.53
2018-07-12T20:40:45.985Z,60303.38
2018-07-12T20:43:18.244Z,60297.29
2018-07-12T20:45:46.807Z,60269.85
2018-07-12T20:48:15.406Z,60305.41
2018-07-12T20:50:43.510Z,60310.50
2018-07-12T20:53:11.691Z,60332.85
2018-07-12T20:55:39.866Z,60312.53
2018-07-12T20:58:08.059Z,60309.48
2018-07-12T21:00:36.231Z,60307.45
2018-07-12T21:03:04.428Z,60302.37
2018-07-12T21:05:32.595Z,60323.71
2018-07-12T21:08:00.772Z,60322.69
2018-07-12T21:10:29.002Z,60315.57
2018-07-12T21:12:57.255Z,60333.87
2018-07-12T21:15:25.504Z,60304.40
2018-07-12T21:17:53.607Z,60311.51
2018-07-12T21:20:21.799Z,60324.72
2018-07-12T21:22:49.949Z,60298.30
2018-07-12T21:25:18.115Z,60289.16
2018-07-12T21:27:46.280Z,60301.35
2018-07-12T21:30:14.464Z,60295.25
2018-07-12T21:32:42.619Z,60323.71
2018-07-12T21:35:10.779Z,60322.69
2018-07-12T21:37:38.962Z,60330.82
2018-07-12T21:40:07.460Z,60311.51
2018-07-12T21:42:35.632Z,60326.75
2018-07-12T21:45:03.882Z,60308.46
2018-07-12T21:48:52.795Z,60336.91
2018-07-12T21:51:20.966Z,60333.87
2018-07-12T21:53:49.136Z,60317.61
2018-07-12T21:56:17.306Z,60348.09
2018-07-12T21:58:45.559Z,60340.98
2018-07-12T22:01:14.019Z,60318.62
2018-07-12T22:03:42.219Z,60346.06
2018-07-12T22:06:10.380Z,60328.79
2018-07-12T22:08:38.547Z,60337.93
2018-07-12T22:11:07.169Z,60334.88
2018-07-12T22:13:36.540Z,60347.08
2018-07-12T22:16:04.735Z,60336.91
2018-07-12T22:18:33.063Z,60340.98
2018-07-12T22:21:01.260Z,60373.50
2018-07-12T22:23:29.435Z,60346.06
2018-07-12T22:25:57.628Z,60351.14
2018-07-12T22:28:25.794Z,60329.80
2018-07-12T22:30:53.970Z,60326.75
2018-07-12T22:33:22.141Z,60333.87
2018-07-12T22:35:50.314Z,60338.95
2018-07-12T22:38:18.482Z,60359.27
2018-07-12T22:40:46.658Z,60362.32
2018-07-12T22:43:14.842Z,60349.11
2018-07-12T22:45:43.003Z,60347.08
2018-07-12T22:48:11.239Z,60359.27
2018-07-12T22:50:39.338Z,60351.14
2018-07-12T22:53:07.499Z,60371.46
2018-07-12T22:55:35.678Z,60354.19
2018-07-12T22:58:03.843Z,60363.34
2018-07-12T23:00:32.013Z,60373.50
2018-07-12T23:03:00.179Z,60351.14
2018-07-12T23:05:28.359Z,60355.21
2018-07-12T23:07:56.546Z,60340.98
2018-07-12T23:10:24.718Z,60376.55
2018-07-12T23:12:52.883Z,60365.37
2018-07-12T23:15:21.055Z,60378.58
2018-07-12T23:17:49.223Z,60358.25
2018-07-12T23:20:17.386Z,60356.22
2018-07-12T23:22:45.558Z,60389.76
2018-07-12T23:25:13.724Z,60382.64
2018-07-12T23:27:41.882Z,60382.64
2018-07-12T23:30:10.063Z,60365.37
2018-07-12T23:32:38.234Z,60381.63
2018-07-12T23:35:06.564Z,60357.24
2018-07-12T23:37:34.743Z,60372.48
2018-07-12T23:40:02.906Z,60370.45
2018-07-12T23:42:31.106Z,60368.42
2018-07-12T23:44:59.270Z,60395.86
2018-07-12T23:47:27.442Z,60376.55
2018-07-12T23:49:55.610Z,60369.43
2018-07-12T23:52:23.783Z,60376.55
2018-07-12T23:54:51.948Z,60379.59
2018-07-12T23:57:20.119Z,60366.39
2018-07-12T23:59:48.306Z,60405.00
